Historyczne dane pomiarowe

Dodano dane terminowe – wersja testowa.

Dane z okresu 1951-2019

Wersja bazy: 1.34 [2019-03-16, lista zmian], aktualizacja planowana na 2019-04-15

Dane meteo z obszaru Polski uzyskane na podstawie danych udostępnionych przez Instytut Meteorologii i Gospodarki Wodnej – Państwowy Instytut Badawczy.

 

Wybierz Datę:    

       

TemperaturaWilgotnośćWiatrCiśnienieOpadyŚniegCzas trwania zjawisk
 Stacja t tx tn tng RH VA  wxwx mslp ppp RRR   cm mm wxwxwxwxwxwxwx
1987-08-14 17.2 20.1 13.1- 83.5- 4.7 2.0---- 2.6------------
1987-08-13 15.4 20.3 11.5- 79.0- 3.7 0.7---- 0.2------------
1987-08-12 14.2 20.3 6.4- 83.5- 3.7 1.0---- 3.2------------
1987-08-11 12.4 15.3 9.7- 81.3- 4.0 0.7---- 0.0------------
1987-08-10 12.8 15.1 8.8- 80.8- 5.3 1.7---- 8.5------------
1987-08-09 14.8 21.3 8.4- 89.8- 5.3 1.0---- 7.6------------
1987-08-08 14.5 18.7 8.9- 74.5- 4.3 1.0---- 0.0------------
1987-08-07 11.5 17.8 5.2- 66.0- 4.0 1.7---- 0.0------------
1987-08-06 9.5 12.6 7.5- 81.8- 4.7 1.0---- 0.6------------
1987-08-05 9.9 13.5 6.4- 88.8- 3.7 1.7---- 3.6------------
1987-08-04 12.8 17.1 9.3- 71.3- 5.0 1.0---- 0.0------------
1987-08-03 14.4 17.5 9.9- 75.0- 3.7 1.3---- 6.7------------
1987-08-02 12.2 15.5 9.8- 80.3- 5.3 2.3---- 0.6------------
1987-08-01 15.2 16.3 13.4- 84.8- 6.3 0.3---- 17.2------------
1987-07-31 15.6 18.7 12.1- 75.3- 5.0 0.3---- 1.5------------
1987-07-30 18.9 24.7 14.3- 72.8- 5.3 2.0---- 7.3------------
1987-07-29 14.4 17.5 10.8- 76.3- 4.0 0.3---- 0.0------------
1987-07-28 13.4 15.7 10.1- 74.8- 5.0 1.7---- 0.3------------
1987-07-27 12.8 15.7 9.3- 77.0- 6.0 3.3---- 4.7------------
1987-07-26 13.0 16.1 10.5- 66.8- 4.3 0.7---- 1.2------------
1987-07-25 16.6 21.9 14.8- 78.8- 4.3 0.3---- 0.6------------
1987-07-24 21.2 24.8 14.3- 72.5- 3.0 1.3---- 0.0------------
1987-07-23 20.1 25.8 14.2- 80.5- 2.7 1.7---- 0.0------------
1987-07-22 19.5 25.4 11.3- 77.5- 2.0 0.7---- 0.2------------
1987-07-21 16.0 21.5 13.4- 85.8- 3.0 2.0---- 1.9------------
1987-07-20 17.6 22.4 11.8- 71.3- 3.0 1.3---- 3.6------------
1987-07-19 16.1 20.1 13.4- 90.0- 5.0 1.7---- 15.3------------
1987-07-18 18.7 25.1 16.2- 78.3- 4.0 1.0---- 6.8------------
1987-07-17 23.5 27.2 18.4- 76.8- 3.3 0.7---- 22.6------------
1987-07-16 23.2 27.9 18.1- 69.5- 3.3 0.7---- 0.0------------
1987-07-15 19.0 25.8 8.9- 50.8- 3.3 1.3---- 0.0------------
1987-07-14 14.4 22.3 6.2- 70.0- 3.0 1.7---- 0.0------------
1987-07-13 14.9 19.5 11.3- 76.3- 2.7 0.7---- 0.0------------
1987-07-12 20.6 24.5 16.4- 69.3- 4.3 0.3---- 12.6------------
1987-07-11 17.0 23.7 8.3- 63.0- 3.3 1.7---- 0.0------------
1987-07-10 14.8 18.3 8.9- 54.5- 3.7 0.3---- 0.0------------
1987-07-09 16.7 19.4 14.3- 73.5- 3.0 1.0---- 0.0------------
1987-07-08 19.7 24.9 15.8- 82.3- 4.0 0.3---- 2.5------------
1987-07-07 21.7 27.3 13.7- 51.8- 3.3 1.0---- 0.0------------
1987-07-06 17.6 26.3 7.3- 66.8- 3.3 1.0---- 0.0------------
1987-07-05 16.4 22.4 8.2- 82.3- 3.3 1.0---- 0.0------------
1987-07-04 19.1 23.2 14.8- 73.8- 5.0 1.0---- 2.1------------
1987-07-03 20.0 26.8 10.6- 72.0- 3.7 0.3---- 0.0------------
1987-07-02 21.2 25.6 17.8- 70.0- 3.7 1.7---- 0.0------------
1987-07-01 24.0 31.4 22.8- 77.8- 3.7 1.3---- 4.3------------
1987-06-30 24.2 29.1 19.2- 72.5- 3.0 1.0---- 0.0------------
1987-06-29 21.8 27.8 14.1- 63.5- 3.0 0.7---- 0.0------------
1987-06-28 19.8 23.1 14.8- 76.3- 4.3 0.7---- 0.0------------
1987-06-27 19.0 23.1 16.3- 73.3- 3.0 0.3---- 0.0------------
1987-06-26 18.5 24.4 10.3- 70.5- 5.0 1.0---- 9.8------------
1987-06-25 15.2 18.3 12.3- 83.8- 3.7 0.3---- 0.6------------
1987-06-24 15.4 17.9 11.4- 77.5- 4.7 1.0---- 12.2------------
1987-06-23 14.9 18.8 8.3- 78.3- 6.0 1.7---- 6.2------------
1987-06-22 13.7 15.8 11.3- 80.8- 7.3 0.0---- 1.4------------
1987-06-21 16.7 18.5 14.7- 82.5- 6.0 0.0---- 5.6------------
1987-06-20 17.9 22.5 12.1- 77.8- 4.0 1.3---- 0.5------------
1987-06-19 14.9 19.3 8.7- 58.0- 3.7 1.3---- 0.0------------
1987-06-18 11.7 15.5 8.7- 84.0- 6.3 2.0---- 4.1------------
1987-06-17 12.2 16.3 9.2- 68.0- 6.3 1.7---- 5.8------------
1987-06-16 11.0 17.8 8.2- 82.0- 5.0 1.0---- 0.4------------
1174.8 ms

 

Źródłem pochodzenia danych jest Instytut Meteorologii i Gospodarki Wodnej – Państwowy Instytut Badawczy. Dane Instytutu Meteorologii i Gospodarki Wodnej – Państwowego Instytutu Badawczego zostały przetworzone.

Dane źródłowe można odnaleźć na stronie https://dane.imgw.pl